createdAt,value
2022-08-22T00:00:13.430Z,98393.81
2022-08-22T00:02:46.132Z,98404.22
2022-08-22T00:02:55.439Z,98392.00
2022-08-22T00:03:01.923Z,98404.50
2022-08-22T00:03:27.229Z,98392.81
2022-08-22T00:06:23.035Z,98400.22
2022-08-22T00:22:56.670Z,98392.44
2022-08-22T00:25:44.648Z,98396.16
2022-08-22T00:28:36.389Z,98390.41
2022-08-22T00:31:25.822Z,98393.78
2022-08-22T00:34:14.382Z,98388.03
2022-08-22T00:37:01.744Z,98394.09
2022-08-22T00:50:50.324Z,98384.66
2022-08-22T00:53:56.344Z,98384.81
2022-08-22T00:57:29.705Z,98386.66
2022-08-22T01:00:23.364Z,98385.66
2022-08-22T01:17:31.345Z,98382.25
2022-08-22T01:21:03.328Z,98378.84
2022-08-22T01:24:31.526Z,98386.13
2022-08-22T01:27:55.653Z,98382.91
2022-08-22T01:31:26.643Z,98386.63
2022-08-22T01:45:01.314Z,98385.28
2022-08-22T01:47:54.210Z,98391.81
2022-08-22T01:50:47.943Z,98387.28
2022-08-22T01:53:45.315Z,98385.59
2022-08-22T01:56:23.396Z,98385.59
2022-08-22T02:09:45.315Z,98384.22
2022-08-22T02:12:40.228Z,98380.81
2022-08-22T02:15:22.108Z,98382.81
2022-08-22T02:18:36.388Z,98381.16
2022-08-22T02:21:22.295Z,98391.97
2022-08-22T02:38:05.317Z,98388.88
2022-08-22T02:40:46.118Z,98390.91
2022-08-22T02:43:35.404Z,98385.66
2022-08-22T02:46:22.858Z,98391.91
2022-08-22T02:49:18.317Z,98382.94
2022-08-22T02:52:02.297Z,98387.50
2022-08-22T03:05:04.317Z,98383.59
2022-08-22T03:07:54.367Z,98380.22
2022-08-22T03:10:35.578Z,98387.47
2022-08-22T03:13:24.157Z,98387.13
2022-08-22T03:16:08.974Z,98388.28
2022-08-22T03:31:23.395Z,98387.75
2022-08-22T03:34:21.438Z,98389.94
2022-08-22T03:37:20.064Z,98391.09
2022-08-22T03:40:04.544Z,98398.84
2022-08-22T03:43:24.374Z,98395.78
2022-08-22T03:46:51.277Z,98399.31
2022-08-22T03:57:23.396Z,98399.44
2022-08-22T04:00:24.854Z,98407.53
2022-08-22T04:03:59.374Z,98399.06
2022-08-22T04:07:38.756Z,98403.47
2022-08-22T04:11:02.522Z,98401.06
2022-08-22T04:25:07.849Z,98413.00
2022-08-22T04:28:00.797Z,98411.47
2022-08-22T04:30:51.332Z,98421.56
2022-08-22T04:33:33.151Z,98420.88
2022-08-22T04:36:26.424Z,98421.84
2022-08-22T04:50:08.412Z,98423.72
2022-08-22T04:53:02.792Z,98427.25
2022-08-22T04:56:07.077Z,98426.28
2022-08-22T04:58:59.074Z,98426.41
2022-08-22T05:01:50.419Z,98432.66
2022-08-22T05:04:31.051Z,98429.84
2022-08-22T05:07:20.338Z,98432.38
2022-08-22T05:17:08.312Z,98434.06
2022-08-22T05:19:56.471Z,98433.06
2022-08-22T05:22:37.520Z,98441.19
2022-08-22T05:25:23.351Z,98445.53
2022-08-22T05:28:09.863Z,98447.13
2022-08-22T05:30:54.381Z,98448.13
2022-08-22T05:44:08.592Z,98458.06
2022-08-22T05:46:47.911Z,98458.22
2022-08-22T05:49:43.352Z,98464.78
2022-08-22T05:52:46.020Z,98468.47
2022-08-22T05:55:35.372Z,98470.44
2022-08-22T06:12:24.331Z,98477.28
2022-08-22T06:15:20.920Z,98478.97
2022-08-22T06:18:01.085Z,98481.69
2022-08-22T06:21:01.233Z,98470.88
2022-08-22T06:23:43.032Z,98485.75
2022-08-22T06:26:26.393Z,98480.34
2022-08-22T06:36:56.316Z,98484.06
2022-08-22T06:39:42.397Z,98482.22
2022-08-22T06:42:21.532Z,98487.47
2022-08-22T06:45:11.360Z,98488.28
2022-08-22T06:47:52.217Z,98489.16
2022-08-22T06:50:42.351Z,98485.44
2022-08-22T07:03:59.391Z,98489.56
2022-08-22T07:06:37.160Z,98483.03
2022-08-22T07:09:31.355Z,98489.28
2022-08-22T07:12:20.433Z,98491.28
2022-08-22T07:15:07.351Z,98485.56
2022-08-22T07:32:12.312Z,98484.94
2022-08-22T07:35:16.371Z,98486.63
2022-08-22T07:38:04.912Z,98490.88
2022-08-22T07:40:57.352Z,98489.19
2022-08-22T07:43:40.152Z,98487.31
2022-08-22T07:46:35.594Z,98497.13
2022-08-22T07:57:08.352Z,98491.94
2022-08-22T07:59:58.352Z,98491.06
2022-08-22T08:02:46.492Z,98495.47
2022-08-22T08:05:32.373Z,98491.78
2022-08-22T08:08:15.491Z,98497.88
2022-08-22T08:11:02.392Z,98494.16
2022-08-22T08:24:22.573Z,98505.22
2022-08-22T08:27:03.052Z,98498.66
2022-08-22T08:29:44.409Z,98499.34
2022-08-22T08:32:18.842Z,98501.03
2022-08-22T08:34:53.391Z,98498.34
2022-08-22T08:37:37.871Z,98506.97
2022-08-22T08:51:19.311Z,98502.75
2022-08-22T08:54:39.392Z,98500.72
2022-08-22T08:57:35.431Z,98503.09
2022-08-22T09:00:30.347Z,98512.22
2022-08-22T09:03:26.232Z,98514.91
2022-08-22T09:06:52.795Z,98506.13
2022-08-22T09:17:27.254Z,98509.69
2022-08-22T09:20:49.374Z,98507.69
2022-08-22T09:24:17.840Z,98505.50
2022-08-22T09:27:08.617Z,98507.88
2022-08-22T09:29:55.063Z,98504.03
2022-08-22T09:46:03.352Z,98499.03
2022-08-22T09:49:00.673Z,98516.09
2022-08-22T09:51:52.000Z,98510.69
2022-08-22T09:54:37.234Z,98510.69
2022-08-22T09:57:35.392Z,98524.88
2022-08-22T10:11:23.769Z,98519.19
2022-08-22T10:14:07.993Z,98520.00
2022-08-22T10:17:07.208Z,98528.97
2022-08-22T10:19:47.751Z,98530.00
2022-08-22T10:22:48.544Z,98532.69
2022-08-22T10:25:36.760Z,98524.59
2022-08-22T10:38:48.457Z,98535.25
2022-08-22T10:41:42.356Z,98536.63
2022-08-22T10:44:32.416Z,98534.78
2022-08-22T10:47:20.378Z,98533.06
2022-08-22T10:50:08.650Z,98540.19
2022-08-22T11:06:00.336Z,98533.47
2022-08-22T11:09:04.417Z,98529.88
2022-08-22T11:11:54.401Z,98528.34
2022-08-22T11:15:03.073Z,98529.69
2022-08-22T11:31:51.657Z,98530.59
2022-08-22T11:34:51.001Z,98526.19
2022-08-22T11:37:56.282Z,98517.22
2022-08-22T11:40:42.599Z,98518.91
2022-08-22T11:43:46.376Z,98532.28
2022-08-22T11:46:31.119Z,98531.09
2022-08-22T11:59:40.151Z,98534.16
2022-08-22T12:02:35.424Z,98535.50
2022-08-22T12:05:24.301Z,98532.81
2022-08-22T12:08:21.033Z,98536.50
2022-08-22T12:11:02.542Z,98534.81
2022-08-22T12:24:43.325Z,98522.63
2022-08-22T12:28:14.416Z,98531.41
2022-08-22T12:31:08.279Z,98524.31
2022-08-22T12:34:26.237Z,98510.63
2022-08-22T12:37:17.026Z,98513.19
2022-08-22T12:57:23.724Z,98507.09
2022-08-22T13:00:23.132Z,98499.69
2022-08-22T13:03:14.417Z,98499.81
2022-08-22T13:05:52.404Z,98506.09
2022-08-22T13:19:07.373Z,98503.91
2022-08-22T13:22:04.417Z,98493.63
2022-08-22T13:24:52.401Z,98487.03
2022-08-22T13:27:39.438Z,98490.38
2022-08-22T13:30:37.403Z,98486.69
2022-08-22T13:47:16.377Z,98482.47
2022-08-22T13:49:54.957Z,98479.44
2022-08-22T13:52:42.382Z,98475.59
2022-08-22T13:55:30.677Z,98471.69
2022-08-22T13:58:26.357Z,98472.38
2022-08-22T14:01:36.064Z,98476.63
2022-08-22T14:11:52.371Z,98473.72
2022-08-22T14:14:32.811Z,98472.03
2022-08-22T14:17:21.373Z,98469.31
2022-08-22T14:20:04.011Z,98471.03
2022-08-22T14:23:03.954Z,98466.63
2022-08-22T14:25:42.756Z,98462.22
2022-08-22T14:38:55.331Z,98468.66
2022-08-22T14:41:56.377Z,98468.66
2022-08-22T14:44:47.498Z,98463.56
2022-08-22T14:48:14.085Z,98462.88
2022-08-22T14:50:52.926Z,98462.88
2022-08-22T15:07:28.379Z,98464.56
2022-08-22T15:10:11.906Z,98459.16
2022-08-22T15:12:58.391Z,98463.19
2022-08-22T15:15:49.356Z,98458.13
2022-08-22T15:18:43.968Z,98456.25
2022-08-22T15:21:30.506Z,98451.19
2022-08-22T15:34:41.338Z,98456.91
2022-08-22T15:37:38.352Z,98459.63
2022-08-22T15:40:40.570Z,98455.56
2022-08-22T15:43:34.983Z,98456.38
2022-08-22T15:46:33.970Z,98457.41
2022-08-22T15:59:54.250Z,98451.81
2022-08-22T16:02:43.610Z,98444.88
2022-08-22T16:05:26.569Z,98449.59
2022-08-22T16:08:13.331Z,98446.88
2022-08-22T16:10:54.670Z,98441.66
2022-08-22T16:27:31.370Z,98436.06
2022-08-22T16:30:15.770Z,98444.50
2022-08-22T16:33:02.416Z,98445.50
2022-08-22T16:36:38.511Z,98442.13
2022-08-22T16:39:44.401Z,98444.16
2022-08-22T16:42:33.322Z,98451.56
2022-08-22T16:52:48.371Z,98455.63
2022-08-22T16:55:48.116Z,98452.22
2022-08-22T16:59:22.371Z,98468.47
2022-08-22T17:02:22.969Z,98459.69
2022-08-22T17:05:29.341Z,98466.94
2022-08-22T17:19:27.349Z,98461.47
2022-08-22T17:22:11.830Z,98463.34
2022-08-22T17:25:06.374Z,98469.75
2022-08-22T17:27:43.851Z,98470.63
2022-08-22T17:30:37.411Z,98470.75
2022-08-22T17:47:07.310Z,98468.72
2022-08-22T17:50:04.650Z,98471.41
2022-08-22T17:52:49.810Z,98476.81
2022-08-22T17:55:38.391Z,98481.56
2022-08-22T17:58:35.666Z,98478.13
2022-08-22T18:01:37.458Z,98478.97
2022-08-22T18:14:59.389Z,98494.00
2022-08-22T18:17:47.530Z,98495.69
2022-08-22T18:20:37.390Z,98499.41
2022-08-22T18:23:21.842Z,98499.56
2022-08-22T18:26:33.410Z,98499.56
2022-08-22T18:40:02.401Z,98499.88
2022-08-22T18:42:47.510Z,98506.44
2022-08-22T18:46:04.380Z,98510.16
2022-08-22T18:48:59.342Z,98507.63
2022-08-22T18:51:44.752Z,98505.06
2022-08-22T19:08:56.332Z,98499.44
2022-08-22T19:11:58.611Z,98495.22
2022-08-22T19:15:05.662Z,98493.50
2022-08-22T19:18:20.379Z,98498.91
2022-08-22T19:21:16.773Z,98507.19
2022-08-22T19:34:46.931Z,98496.72
2022-08-22T19:37:35.379Z,98498.53
2022-08-22T19:40:11.440Z,98503.94
2022-08-22T19:42:53.373Z,98499.56
2022-08-22T19:45:28.112Z,98500.59
2022-08-22T19:48:14.302Z,98501.59
2022-08-22T20:02:12.312Z,98524.38
2022-08-22T20:05:10.535Z,98530.78
2022-08-22T20:08:27.354Z,98525.53
2022-08-22T20:11:19.652Z,98524.66
2022-08-22T20:27:49.312Z,98517.03
2022-08-22T20:30:30.977Z,98519.19
2022-08-22T20:33:17.332Z,98509.41
2022-08-22T20:35:54.595Z,98505.00
2022-08-22T20:38:42.392Z,98512.13
2022-08-22T20:41:40.052Z,98512.97
2022-08-22T20:54:43.293Z,98514.59
2022-08-22T20:57:26.538Z,98501.53
2022-08-22T21:00:09.577Z,98498.84
2022-08-22T21:02:59.313Z,98493.59
2022-08-22T21:05:38.077Z,98487.38
2022-08-22T21:21:41.351Z,98481.44
2022-08-22T21:24:15.452Z,98493.06
2022-08-22T21:27:06.573Z,98491.22
2022-08-22T21:29:46.342Z,98483.13
2022-08-22T21:32:40.311Z,98481.44
2022-08-22T21:49:20.451Z,98486.59
2022-08-22T21:52:01.370Z,98485.75
2022-08-22T21:54:37.751Z,98484.06
2022-08-22T21:57:27.511Z,98478.66
2022-08-22T22:00:07.297Z,98482.34
2022-08-22T22:02:49.391Z,98478.97
2022-08-22T22:16:01.649Z,98470.44
2022-08-22T22:18:38.269Z,98477.88
2022-08-22T22:21:12.350Z,98472.47
2022-08-22T22:23:46.313Z,98465.22
2022-08-22T22:26:21.370Z,98461.69
2022-08-22T22:40:18.432Z,98469.06
2022-08-22T22:42:53.010Z,98470.22
2022-08-22T22:45:27.308Z,98462.28
2022-08-22T22:48:01.259Z,98457.19
2022-08-22T22:50:35.469Z,98460.88
2022-08-22T22:53:10.828Z,98457.53
2022-08-22T22:55:59.618Z,98457.81
2022-08-22T23:09:10.364Z,98443.09
2022-08-22T23:11:50.265Z,98453.38
2022-08-22T23:14:24.364Z,98455.06
2022-08-22T23:17:00.726Z,98455.06
2022-08-22T23:19:44.167Z,98454.75
2022-08-22T23:22:20.724Z,98444.28
2022-08-22T23:35:12.306Z,98453.38
2022-08-22T23:37:52.358Z,98449.97
2022-08-22T23:40:26.236Z,98451.66
2022-08-22T23:43:00.379Z,98449.25
2022-08-22T23:45:34.138Z,98454.81
2022-08-22T23:48:08.320Z,98442.19
